sensor_id;sensor_type;location;lat;lon;timestamp;pressure;altitude;pressure_sealevel;temperature;humidity
51986;BME280;38002;53.296;6.600;2023-09-19T00:00:56;100548.56;;;14.58;89.34
51986;BME280;38002;53.296;6.600;2023-09-19T00:05:58;100558.41;;;14.52;89.31
51986;BME280;38002;53.296;6.600;2023-09-19T00:10:58;100563.59;;;14.47;89.22
51986;BME280;38002;53.296;6.600;2023-09-19T00:16:11;100572.41;;;14.42;90.04
51986;BME280;38002;53.296;6.600;2023-09-19T00:21:12;100567.00;;;14.34;89.56
51986;BME280;38002;53.296;6.600;2023-09-19T00:26:12;100585.88;;;14.29;89.69
51986;BME280;38002;53.296;6.600;2023-09-19T00:31:13;100594.50;;;14.26;90.13
51986;BME280;38002;53.296;6.600;2023-09-19T00:36:13;100591.34;;;14.29;90.15
51986;BME280;38002;53.296;6.600;2023-09-19T00:41:14;100597.84;;;14.28;90.07
51986;BME280;38002;53.296;6.600;2023-09-19T00:46:17;100596.19;;;14.27;90.11
51986;BME280;38002;53.296;6.600;2023-09-19T00:51:21;100605.03;;;14.29;90.04
51986;BME280;38002;53.296;6.600;2023-09-19T00:56:23;100618.06;;;14.27;89.72
51986;BME280;38002;53.296;6.600;2023-09-19T01:01:23;100613.19;;;14.23;89.64
51986;BME280;38002;53.296;6.600;2023-09-19T01:06:25;100620.91;;;14.19;89.70
51986;BME280;38002;53.296;6.600;2023-09-19T01:11:33;100634.78;;;14.18;89.21
51986;BME280;38002;53.296;6.600;2023-09-19T01:16:46;100648.00;;;14.14;89.08
51986;BME280;38002;53.296;6.600;2023-09-19T01:22:09;100639.03;;;14.05;89.39
51986;BME280;38002;53.296;6.600;2023-09-19T01:32:21;100651.22;;;13.88;89.30
51986;BME280;38002;53.296;6.600;2023-09-19T01:37:22;100648.56;;;13.80;89.15
51986;BME280;38002;53.296;6.600;2023-09-19T01:47:52;100663.25;;;13.64;88.84
51986;BME280;38002;53.296;6.600;2023-09-19T01:53:10;100661.28;;;13.58;88.74
51986;BME280;38002;53.296;6.600;2023-09-19T01:58:33;100656.53;;;13.52;88.92
51986;BME280;38002;53.296;6.600;2023-09-19T02:03:35;100669.53;;;13.50;88.53
51986;BME280;38002;53.296;6.600;2023-09-19T02:08:36;100666.53;;;13.45;88.82
51986;BME280;38002;53.296;6.600;2023-09-19T02:13:37;100655.94;;;13.42;88.59
51986;BME280;38002;53.296;6.600;2023-09-19T02:18:38;100664.53;;;13.39;88.08
51986;BME280;38002;53.296;6.600;2023-09-19T02:23:39;100657.75;;;13.35;88.10
51986;BME280;38002;53.296;6.600;2023-09-19T02:28:41;100662.53;;;13.33;88.27
51986;BME280;38002;53.296;6.600;2023-09-19T02:33:42;100662.03;;;13.30;88.01
51986;BME280;38002;53.296;6.600;2023-09-19T02:38:43;100668.06;;;13.25;87.57
51986;BME280;38002;53.296;6.600;2023-09-19T02:43:44;100658.53;;;13.21;87.71
51986;BME280;38002;53.296;6.600;2023-09-19T02:48:44;100671.53;;;13.19;88.38
51986;BME280;38002;53.296;6.600;2023-09-19T02:53:45;100664.56;;;13.16;88.38
51986;BME280;38002;53.296;6.600;2023-09-19T02:58:48;100669.53;;;13.13;88.22
51986;BME280;38002;53.296;6.600;2023-09-19T03:03:48;100674.34;;;13.11;88.54
51986;BME280;38002;53.296;6.600;2023-09-19T03:08:50;100685.56;;;13.08;88.30
51986;BME280;38002;53.296;6.600;2023-09-19T03:13:52;100682.75;;;13.01;88.44
51986;BME280;38002;53.296;6.600;2023-09-19T03:18:53;100679.16;;;13.01;88.50
51986;BME280;38002;53.296;6.600;2023-09-19T03:23:53;100699.59;;;13.05;88.50
51986;BME280;38002;53.296;6.600;2023-09-19T03:28:54;100710.53;;;13.05;88.17
51986;BME280;38002;53.296;6.600;2023-09-19T03:33:54;100714.28;;;13.04;88.36
51986;BME280;38002;53.296;6.600;2023-09-19T03:38:55;100707.47;;;13.00;87.86
51986;BME280;38002;53.296;6.600;2023-09-19T03:43:56;100713.13;;;12.98;87.93
51986;BME280;38002;53.296;6.600;2023-09-19T03:48:56;100696.25;;;12.95;88.11
51986;BME280;38002;53.296;6.600;2023-09-19T03:53:57;100703.47;;;12.88;87.77
51986;BME280;38002;53.296;6.600;2023-09-19T03:58:58;100709.47;;;12.83;88.22
51986;BME280;38002;53.296;6.600;2023-09-19T04:03:58;100700.13;;;12.78;88.17
51986;BME280;38002;53.296;6.600;2023-09-19T04:08:59;100701.34;;;12.75;88.64
51986;BME280;38002;53.296;6.600;2023-09-19T04:14:03;100699.16;;;12.70;88.36
51986;BME280;38002;53.296;6.600;2023-09-19T04:19:03;100713.66;;;12.71;88.65
51986;BME280;38002;53.296;6.600;2023-09-19T04:24:04;100711.94;;;12.70;88.57
51986;BME280;38002;53.296;6.600;2023-09-19T04:29:05;100715.34;;;12.72;88.81
51986;BME280;38002;53.296;6.600;2023-09-19T04:34:06;100721.94;;;12.78;88.82
51986;BME280;38002;53.296;6.600;2023-09-19T04:39:08;100714.06;;;12.83;89.07
51986;BME280;38002;53.296;6.600;2023-09-19T04:44:08;100725.69;;;12.85;89.30
51986;BME280;38002;53.296;6.600;2023-09-19T04:49:09;100716.25;;;12.87;88.99
51986;BME280;38002;53.296;6.600;2023-09-19T04:54:09;100728.72;;;12.90;89.27
51986;BME280;38002;53.296;6.600;2023-09-19T04:59:10;100725.63;;;12.93;88.96
51986;BME280;38002;53.296;6.600;2023-09-19T05:04:11;100728.19;;;12.94;89.56
51986;BME280;38002;53.296;6.600;2023-09-19T05:09:12;100729.53;;;12.98;89.25
51986;BME280;38002;53.296;6.600;2023-09-19T05:14:14;100736.84;;;12.98;89.81
51986;BME280;38002;53.296;6.600;2023-09-19T05:19:14;100737.50;;;13.00;89.90
51986;BME280;38002;53.296;6.600;2023-09-19T05:24:15;100741.09;;;13.00;90.26
51986;BME280;38002;53.296;6.600;2023-09-19T05:29:17;100738.19;;;13.02;90.15
51986;BME280;38002;53.296;6.600;2023-09-19T05:34:17;100737.81;;;13.05;90.33
51986;BME280;38002;53.296;6.600;2023-09-19T05:39:18;100735.56;;;13.08;90.07
51986;BME280;38002;53.296;6.600;2023-09-19T05:44:24;100746.19;;;13.11;90.03
51986;BME280;38002;53.296;6.600;2023-09-19T05:49:36;100740.34;;;13.14;90.92
51986;BME280;38002;53.296;6.600;2023-09-19T05:54:38;100731.94;;;13.16;90.27
51986;BME280;38002;53.296;6.600;2023-09-19T05:59:38;100733.97;;;13.22;90.21
51986;BME280;38002;53.296;6.600;2023-09-19T06:04:40;100740.94;;;13.25;90.41
51986;BME280;38002;53.296;6.600;2023-09-19T06:09:41;100761.59;;;13.27;90.71
51986;BME280;38002;53.296;6.600;2023-09-19T06:14:41;100781.88;;;13.33;90.24
51986;BME280;38002;53.296;6.600;2023-09-19T06:19:41;100773.13;;;13.37;90.27
51986;BME280;38002;53.296;6.600;2023-09-19T06:24:46;100774.94;;;13.45;90.53
51986;BME280;38002;53.296;6.600;2023-09-19T06:29:47;100783.59;;;13.48;90.44
51986;BME280;38002;53.296;6.600;2023-09-19T06:34:52;100787.31;;;13.55;91.29
51986;BME280;38002;53.296;6.600;2023-09-19T06:39:54;100776.88;;;13.59;90.21
51986;BME280;38002;53.296;6.600;2023-09-19T06:44:55;100775.28;;;13.64;90.20
51986;BME280;38002;53.296;6.600;2023-09-19T06:49:56;100776.59;;;13.69;89.83
51986;BME280;38002;53.296;6.600;2023-09-19T06:54:56;100769.00;;;13.79;89.45
51986;BME280;38002;53.296;6.600;2023-09-19T06:59:57;100769.09;;;13.85;89.62
51986;BME280;38002;53.296;6.600;2023-09-19T07:04:57;100780.16;;;13.92;89.74
51986;BME280;38002;53.296;6.600;2023-09-19T07:09:58;100773.75;;;13.99;89.35
51986;BME280;38002;53.296;6.600;2023-09-19T07:14:58;100765.00;;;14.04;89.03
51986;BME280;38002;53.296;6.600;2023-09-19T07:19:59;100787.06;;;14.17;89.21
51986;BME280;38002;53.296;6.600;2023-09-19T07:24:59;100795.84;;;14.27;88.87
51986;BME280;38002;53.296;6.600;2023-09-19T07:30:00;100794.44;;;14.31;88.90
51986;BME280;38002;53.296;6.600;2023-09-19T07:35:00;100796.44;;;14.37;88.89
51986;BME280;38002;53.296;6.600;2023-09-19T07:40:05;100791.09;;;14.44;88.22
51986;BME280;38002;53.296;6.600;2023-09-19T07:45:12;100788.25;;;14.52;88.36
51986;BME280;38002;53.296;6.600;2023-09-19T07:50:18;100790.69;;;14.62;88.21
51986;BME280;38002;53.296;6.600;2023-09-19T07:55:19;100791.06;;;14.73;88.24
51986;BME280;38002;53.296;6.600;2023-09-19T08:00:23;100788.38;;;14.80;87.46
51986;BME280;38002;53.296;6.600;2023-09-19T08:05:24;100789.72;;;14.84;87.59
51986;BME280;38002;53.296;6.600;2023-09-19T08:10:24;100779.69;;;14.91;88.02
51986;BME280;38002;53.296;6.600;2023-09-19T08:15:27;100793.16;;;15.07;87.77
51986;BME280;38002;53.296;6.600;2023-09-19T08:20:28;100798.66;;;15.28;87.29
51986;BME280;38002;53.296;6.600;2023-09-19T08:25:28;100779.22;;;15.44;86.99
51986;BME280;38002;53.296;6.600;2023-09-19T08:30:29;100797.78;;;15.64;86.41
51986;BME280;38002;53.296;6.600;2023-09-19T08:35:30;100795.03;;;15.85;86.55
51986;BME280;38002;53.296;6.600;2023-09-19T08:40:32;100803.66;;;16.10;85.18
51986;BME280;38002;53.296;6.600;2023-09-19T08:45:33;100790.09;;;16.29;85.23
51986;BME280;38002;53.296;6.600;2023-09-19T08:50:41;100787.63;;;16.34;85.13
51986;BME280;38002;53.296;6.600;2023-09-19T08:55:43;100782.81;;;16.43;84.75
51986;BME280;38002;53.296;6.600;2023-09-19T09:00:48;100781.59;;;16.52;84.37
51986;BME280;38002;53.296;6.600;2023-09-19T09:05:51;100793.50;;;16.59;84.32
51986;BME280;38002;53.296;6.600;2023-09-19T09:10:52;100796.66;;;16.63;83.68
51986;BME280;38002;53.296;6.600;2023-09-19T09:15:53;100797.09;;;16.60;83.74
51986;BME280;38002;53.296;6.600;2023-09-19T09:20:54;100812.09;;;16.64;83.51
51986;BME280;38002;53.296;6.600;2023-09-19T09:25:56;100798.63;;;16.69;83.25
51986;BME280;38002;53.296;6.600;2023-09-19T09:30:58;100792.50;;;16.73;83.29
51986;BME280;38002;53.296;6.600;2023-09-19T09:35:59;100800.78;;;16.80;82.02
51986;BME280;38002;53.296;6.600;2023-09-19T09:41:03;100783.69;;;16.85;83.08
51986;BME280;38002;53.296;6.600;2023-09-19T09:46:16;100787.28;;;16.92;82.71
51986;BME280;38002;53.296;6.600;2023-09-19T09:51:29;100794.47;;;16.93;82.09
51986;BME280;38002;53.296;6.600;2023-09-19T09:56:31;100787.34;;;16.98;82.97
51986;BME280;38002;53.296;6.600;2023-09-19T10:01:47;100785.06;;;17.08;81.67
51986;BME280;38002;53.296;6.600;2023-09-19T10:06:53;100782.97;;;17.17;82.27
51986;BME280;38002;53.296;6.600;2023-09-19T10:12:06;100766.66;;;17.15;81.47
51986;BME280;38002;53.296;6.600;2023-09-19T10:17:10;100770.03;;;17.17;82.09
51986;BME280;38002;53.296;6.600;2023-09-19T10:22:11;100775.59;;;17.37;81.06
51986;BME280;38002;53.296;6.600;2023-09-19T10:27:13;100769.97;;;17.58;81.25
51986;BME280;38002;53.296;6.600;2023-09-19T10:32:21;100751.97;;;17.82;79.97
51986;BME280;38002;53.296;6.600;2023-09-19T10:37:24;100749.88;;;17.97;79.16
51986;BME280;38002;53.296;6.600;2023-09-19T10:42:27;100744.56;;;18.02;78.29
51986;BME280;38002;53.296;6.600;2023-09-19T10:47:29;100743.88;;;18.27;77.85
51986;BME280;38002;53.296;6.600;2023-09-19T10:52:31;100740.41;;;18.51;78.17
51986;BME280;38002;53.296;6.600;2023-09-19T10:57:35;100725.84;;;18.50;77.62
51986;BME280;38002;53.296;6.600;2023-09-19T11:02:37;100727.78;;;18.30;77.07
51986;BME280;38002;53.296;6.600;2023-09-19T11:07:56;100724.66;;;18.07;72.53
51986;BME280;38002;53.296;6.600;2023-09-19T11:12:57;100718.31;;;18.06;77.10
51986;BME280;38002;53.296;6.600;2023-09-19T11:17:58;100727.41;;;18.00;76.95
51986;BME280;38002;53.296;6.600;2023-09-19T11:23:18;100727.44;;;17.87;74.27
51986;BME280;38002;53.296;6.600;2023-09-19T11:33:32;100714.09;;;17.91;75.78
51986;BME280;38002;53.296;6.600;2023-09-19T11:43:42;100701.44;;;17.77;76.70
51986;BME280;38002;53.296;6.600;2023-09-19T11:48:43;100694.44;;;17.94;77.07
51986;BME280;38002;53.296;6.600;2023-09-19T11:53:44;100671.13;;;17.96;76.05
51986;BME280;38002;53.296;6.600;2023-09-19T11:58:45;100684.25;;;18.01;76.48
51986;BME280;38002;53.296;6.600;2023-09-19T12:03:47;100683.38;;;18.00;76.33
51986;BME280;38002;53.296;6.600;2023-09-19T12:08:53;100695.69;;;17.98;75.59
51986;BME280;38002;53.296;6.600;2023-09-19T12:13:54;100678.75;;;17.88;76.48
51986;BME280;38002;53.296;6.600;2023-09-19T12:19:17;100674.31;;;17.74;75.98
51986;BME280;38002;53.296;6.600;2023-09-19T12:24:20;100656.59;;;17.63;76.87
51986;BME280;38002;53.296;6.600;2023-09-19T12:29:21;100660.13;;;17.57;76.99
51986;BME280;38002;53.296;6.600;2023-09-19T12:34:23;100670.31;;;17.50;77.53
51986;BME280;38002;53.296;6.600;2023-09-19T12:39:29;100701.16;;;17.39;77.67
51986;BME280;38002;53.296;6.600;2023-09-19T12:44:30;100689.09;;;17.13;78.78
51986;BME280;38002;53.296;6.600;2023-09-19T12:49:30;100660.09;;;17.04;79.84
51986;BME280;38002;53.296;6.600;2023-09-19T12:54:40;100649.56;;;17.08;80.09
51986;BME280;38002;53.296;6.600;2023-09-19T12:59:41;100640.69;;;17.19;79.58
51986;BME280;38002;53.296;6.600;2023-09-19T13:04:52;100629.72;;;17.26;79.88
51986;BME280;38002;53.296;6.600;2023-09-19T13:10:03;100629.91;;;17.31;78.89
51986;BME280;38002;53.296;6.600;2023-09-19T13:15:11;100643.44;;;17.32;78.84
51986;BME280;38002;53.296;6.600;2023-09-19T13:20:22;100649.38;;;17.36;78.64
51986;BME280;38002;53.296;6.600;2023-09-19T13:25:27;100664.81;;;17.37;79.15
51986;BME280;38002;53.296;6.600;2023-09-19T13:30:30;100662.88;;;17.31;79.59
51986;BME280;38002;53.296;6.600;2023-09-19T13:35:31;100666.47;;;17.11;82.82
51986;BME280;38002;53.296;6.600;2023-09-19T13:40:33;100660.13;;;16.98;80.79
51986;BME280;38002;53.296;6.600;2023-09-19T13:45:35;100641.94;;;16.90;81.80
51986;BME280;38002;53.296;6.600;2023-09-19T13:50:37;100631.56;;;16.86;82.17
51986;BME280;38002;53.296;6.600;2023-09-19T13:55:42;100622.06;;;16.88;82.04
51986;BME280;38002;53.296;6.600;2023-09-19T14:00:42;100614.88;;;17.00;82.33
51986;BME280;38002;53.296;6.600;2023-09-19T14:05:43;100625.50;;;17.16;81.57
51986;BME280;38002;53.296;6.600;2023-09-19T14:10:43;100622.94;;;17.28;81.19
51986;BME280;38002;53.296;6.600;2023-09-19T14:15:44;100617.88;;;17.38;81.02
51986;BME280;38002;53.296;6.600;2023-09-19T14:20:45;100612.38;;;17.51;80.87
51986;BME280;38002;53.296;6.600;2023-09-19T14:25:46;100612.59;;;17.63;80.69
51986;BME280;38002;53.296;6.600;2023-09-19T14:30:46;100613.84;;;17.67;80.49
51986;BME280;38002;53.296;6.600;2023-09-19T14:35:49;100605.56;;;17.74;80.41
51986;BME280;38002;53.296;6.600;2023-09-19T14:40:59;100623.56;;;17.76;79.87
51986;BME280;38002;53.296;6.600;2023-09-19T14:46:05;100616.38;;;17.75;80.00
51986;BME280;38002;53.296;6.600;2023-09-19T14:51:08;100612.16;;;17.66;80.51
51986;BME280;38002;53.296;6.600;2023-09-19T14:56:12;100618.91;;;17.57;80.45
51986;BME280;38002;53.296;6.600;2023-09-19T15:01:16;100607.06;;;17.50;81.04
51986;BME280;38002;53.296;6.600;2023-09-19T15:06:16;100611.94;;;17.41;81.85
51986;BME280;38002;53.296;6.600;2023-09-19T15:11:19;100603.06;;;17.33;81.93
51986;BME280;38002;53.296;6.600;2023-09-19T15:16:20;100616.81;;;17.19;82.77
51986;BME280;38002;53.296;6.600;2023-09-19T15:21:26;100616.19;;;17.11;82.60
51986;BME280;38002;53.296;6.600;2023-09-19T15:26:29;100618.28;;;17.02;83.12
51986;BME280;38002;53.296;6.600;2023-09-19T15:31:30;100636.44;;;16.90;86.58
51986;BME280;38002;53.296;6.600;2023-09-19T15:36:30;100635.16;;;16.86;84.20
51986;BME280;38002;53.296;6.600;2023-09-19T15:41:36;100633.88;;;16.75;85.34
51986;BME280;38002;53.296;6.600;2023-09-19T15:46:40;100632.13;;;16.61;86.11
51986;BME280;38002;53.296;6.600;2023-09-19T15:51:41;100637.16;;;16.51;86.86
51986;BME280;38002;53.296;6.600;2023-09-19T15:56:45;100639.88;;;16.45;87.71
51986;BME280;38002;53.296;6.600;2023-09-19T16:01:46;100643.22;;;16.40;86.97
51986;BME280;38002;53.296;6.600;2023-09-19T16:06:48;100627.41;;;16.42;87.27
51986;BME280;38002;53.296;6.600;2023-09-19T16:11:49;100635.44;;;16.44;87.46
51986;BME280;38002;53.296;6.600;2023-09-19T16:16:49;100639.88;;;16.45;88.02
51986;BME280;38002;53.296;6.600;2023-09-19T16:21:50;100633.31;;;16.46;87.49
51986;BME280;38002;53.296;6.600;2023-09-19T16:26:51;100646.63;;;16.49;87.79
51986;BME280;38002;53.296;6.600;2023-09-19T16:31:52;100635.66;;;16.49;87.94
51986;BME280;38002;53.296;6.600;2023-09-19T16:36:54;100638.19;;;16.44;91.00
51986;BME280;38002;53.296;6.600;2023-09-19T16:41:54;100633.94;;;16.41;88.47
51986;BME280;38002;53.296;6.600;2023-09-19T16:46:57;100659.06;;;16.38;88.63
51986;BME280;38002;53.296;6.600;2023-09-19T16:51:58;100643.03;;;16.35;88.71
51986;BME280;38002;53.296;6.600;2023-09-19T16:56:58;100656.28;;;16.31;89.30
51986;BME280;38002;53.296;6.600;2023-09-19T17:01:59;100656.28;;;16.31;89.14
51986;BME280;38002;53.296;6.600;2023-09-19T17:06:59;100646.97;;;16.26;89.94
51986;BME280;38002;53.296;6.600;2023-09-19T17:12:03;100648.22;;;16.23;90.03
51986;BME280;38002;53.296;6.600;2023-09-19T17:17:03;100661.31;;;16.21;89.94
51986;BME280;38002;53.296;6.600;2023-09-19T17:22:04;100656.22;;;16.18;90.07
51986;BME280;38002;53.296;6.600;2023-09-19T17:27:05;100659.78;;;16.12;91.15
51986;BME280;38002;53.296;6.600;2023-09-19T17:32:06;100650.03;;;16.10;91.81
51986;BME280;38002;53.296;6.600;2023-09-19T17:37:07;100655.75;;;16.08;91.06
51986;BME280;38002;53.296;6.600;2023-09-19T17:42:08;100653.41;;;16.05;91.31
51986;BME280;38002;53.296;6.600;2023-09-19T17:47:12;100667.53;;;16.02;91.77
51986;BME280;38002;53.296;6.600;2023-09-19T17:52:13;100660.56;;;16.00;91.76
51986;BME280;38002;53.296;6.600;2023-09-19T17:57:15;100668.34;;;15.96;94.78
51986;BME280;38002;53.296;6.600;2023-09-19T18:02:16;100671.09;;;15.96;92.48
51986;BME280;38002;53.296;6.600;2023-09-19T18:07:16;100683.50;;;15.92;92.92
51986;BME280;38002;53.296;6.600;2023-09-19T18:12:17;100660.91;;;15.90;92.88
51986;BME280;38002;53.296;6.600;2023-09-19T18:17:18;100668.03;;;15.84;93.13
51986;BME280;38002;53.296;6.600;2023-09-19T18:22:18;100676.69;;;15.81;93.54
51986;BME280;38002;53.296;6.600;2023-09-19T18:27:19;100665.91;;;15.80;93.31
51986;BME280;38002;53.296;6.600;2023-09-19T18:32:20;100665.91;;;15.80;95.27
51986;BME280;38002;53.296;6.600;2023-09-19T18:37:21;100678.72;;;15.73;94.67
51986;BME280;38002;53.296;6.600;2023-09-19T18:42:22;100695.63;;;15.76;94.09
51986;BME280;38002;53.296;6.600;2023-09-19T18:47:23;100683.19;;;15.74;96.40
51986;BME280;38002;53.296;6.600;2023-09-19T18:52:27;100682.31;;;15.73;94.95
51986;BME280;38002;53.296;6.600;2023-09-19T18:57:28;100693.47;;;15.72;94.91
51986;BME280;38002;53.296;6.600;2023-09-19T19:02:28;100683.38;;;15.72;95.41
51986;BME280;38002;53.296;6.600;2023-09-19T19:07:29;100685.25;;;15.72;95.94
51986;BME280;38002;53.296;6.600;2023-09-19T19:12:31;100691.41;;;15.74;96.74
51986;BME280;38002;53.296;6.600;2023-09-19T19:17:35;100684.22;;;15.73;95.95
51986;BME280;38002;53.296;6.600;2023-09-19T19:22:37;100682.50;;;15.72;96.12
51986;BME280;38002;53.296;6.600;2023-09-19T19:27:37;100682.91;;;15.69;98.03
51986;BME280;38002;53.296;6.600;2023-09-19T19:32:38;100694.06;;;15.67;97.81
51986;BME280;38002;53.296;6.600;2023-09-19T19:37:39;100691.16;;;15.69;97.18
51986;BME280;38002;53.296;6.600;2023-09-19T19:42:39;100685.84;;;15.67;97.42
51986;BME280;38002;53.296;6.600;2023-09-19T19:47:40;100685.66;;;15.69;97.07
51986;BME280;38002;53.296;6.600;2023-09-19T19:52:40;100681.22;;;15.68;98.06
51986;BME280;38002;53.296;6.600;2023-09-19T19:57:41;100696.22;;;15.72;97.33
51986;BME280;38002;53.296;6.600;2023-09-19T20:02:43;100696.66;;;15.75;97.59
51986;BME280;38002;53.296;6.600;2023-09-19T20:07:44;100692.88;;;15.76;97.38
51986;BME280;38002;53.296;6.600;2023-09-19T20:12:45;100693.31;;;15.80;97.85
51986;BME280;38002;53.296;6.600;2023-09-19T20:17:48;100706.84;;;15.81;99.02
51986;BME280;38002;53.296;6.600;2023-09-19T20:22:49;100685.75;;;15.82;98.52
51986;BME280;38002;53.296;6.600;2023-09-19T20:27:50;100691.25;;;15.82;98.58
51986;BME280;38002;53.296;6.600;2023-09-19T20:32:51;100683.88;;;15.82;97.72
51986;BME280;38002;53.296;6.600;2023-09-19T20:37:51;100682.78;;;15.83;98.05
51986;BME280;38002;53.296;6.600;2023-09-19T20:42:53;100685.75;;;15.82;98.78
51986;BME280;38002;53.296;6.600;2023-09-19T20:47:54;100691.03;;;15.83;98.72
51986;BME280;38002;53.296;6.600;2023-09-19T20:52:54;100667.16;;;15.77;98.15
51986;BME280;38002;53.296;6.600;2023-09-19T20:57:55;100684.94;;;15.88;98.07
51986;BME280;38002;53.296;6.600;2023-09-19T21:02:55;100687.31;;;15.91;98.97
51986;BME280;38002;53.296;6.600;2023-09-19T21:07:56;100678.47;;;15.96;97.93
51986;BME280;38002;53.296;6.600;2023-09-19T21:12:56;100681.66;;;15.99;99.71
51986;BME280;38002;53.296;6.600;2023-09-19T21:17:57;100685.88;;;16.02;97.85
51986;BME280;38002;53.296;6.600;2023-09-19T21:22:58;100680.00;;;16.05;98.62
51986;BME280;38002;53.296;6.600;2023-09-19T21:27:59;100681.28;;;16.09;98.13
51986;BME280;38002;53.296;6.600;2023-09-19T21:32:59;100683.44;;;16.13;97.82
51986;BME280;38002;53.296;6.600;2023-09-19T21:38:00;100686.63;;;16.17;98.69
51986;BME280;38002;53.296;6.600;2023-09-19T21:43:01;100687.25;;;16.19;98.17
51986;BME280;38002;53.296;6.600;2023-09-19T21:48:02;100678.41;;;16.23;97.28
51986;BME280;38002;53.296;6.600;2023-09-19T21:53:04;100668.72;;;16.27;97.00
51986;BME280;38002;53.296;6.600;2023-09-19T21:58:04;100672.13;;;16.29;97.48
51986;BME280;38002;53.296;6.600;2023-09-19T22:03:05;100677.38;;;16.31;97.16
51986;BME280;38002;53.296;6.600;2023-09-19T22:08:10;100682.66;;;16.32;96.88
51986;BME280;38002;53.296;6.600;2023-09-19T22:13:14;100669.81;;;16.33;96.64
51986;BME280;38002;53.296;6.600;2023-09-19T22:18:22;100659.47;;;16.35;96.73
51986;BME280;38002;53.296;6.600;2023-09-19T22:23:23;100669.81;;;16.33;96.68
51986;BME280;38002;53.296;6.600;2023-09-19T22:28:35;100676.56;;;16.37;96.40
51986;BME280;38002;53.296;6.600;2023-09-19T22:33:38;100666.25;;;16.39;96.09
51986;BME280;38002;53.296;6.600;2023-09-19T22:38:40;100677.00;;;16.41;96.29
51986;BME280;38002;53.296;6.600;2023-09-19T22:43:41;100675.97;;;16.42;96.21
51986;BME280;38002;53.296;6.600;2023-09-19T22:48:48;100678.50;;;16.43;96.25
51986;BME280;38002;53.296;6.600;2023-09-19T22:53:50;100680.59;;;16.41;96.45
51986;BME280;38002;53.296;6.600;2023-09-19T22:59:00;100683.53;;;16.40;96.84
51986;BME280;38002;53.296;6.600;2023-09-19T23:04:04;100693.88;;;16.38;96.84
51986;BME280;38002;53.296;6.600;2023-09-19T23:09:11;100689.84;;;16.33;97.37
51986;BME280;38002;53.296;6.600;2023-09-19T23:14:37;100702.91;;;16.31;96.98
51986;BME280;38002;53.296;6.600;2023-09-19T23:19:42;100702.53;;;16.34;97.09
51986;BME280;38002;53.296;6.600;2023-09-19T23:24:44;100700.00;;;16.40;96.72
51986;BME280;38002;53.296;6.600;2023-09-19T23:29:45;100694.97;;;16.43;96.72
51986;BME280;38002;53.296;6.600;2023-09-19T23:34:46;100704.28;;;16.49;96.99
51986;BME280;38002;53.296;6.600;2023-09-19T23:39:47;100701.56;;;16.55;96.74
51986;BME280;38002;53.296;6.600;2023-09-19T23:44:47;100707.53;;;16.59;96.82
51986;BME280;38002;53.296;6.600;2023-09-19T23:49:51;100711.56;;;16.63;96.16
51986;BME280;38002;53.296;6.600;2023-09-19T23:54:53;100717.03;;;16.63;96.49
51986;BME280;38002;53.296;6.600;2023-09-19T23:59:53;100714.91;;;16.58;97.01
